Time;durP1;ratioP1;P1;durP2;ratioP2;P2;SDS_P1;SDS_P2;PMS_P1;PMS_P2;Temp;Humidity;BMP_temperature;BMP_pressure;BME280_temperature;BME280_humidity;BME280_pressure;Samples;Min_cycle;Max_cycle;Signal;HPM_P1;HPM_P2
2021/10/10 00:00:34;;;;;;;66.53;32.30;;;;;;;10.47;100.00;102730.25;5101544;28;20062;-60
2021/10/10 00:03:00;;;;;;;66.32;31.02;;;;;;;10.43;100.00;102735.09;5101629;28;20062;-60
2021/10/10 00:05:25;;;;;;;71.43;32.10;;;;;;;10.44;100.00;102727.88;5100027;28;20032;-60
2021/10/10 00:07:51;;;;;;;62.67;31.83;;;;;;;10.37;100.00;102724.91;5102074;28;20388;-60
2021/10/10 00:10:17;;;;;;;70.67;33.33;;;;;;;10.37;100.00;102721.41;5101770;28;20036;-60
2021/10/10 00:12:43;;;;;;;69.35;32.72;;;;;;;10.38;100.00;102726.63;5102207;28;20031;-60
2021/10/10 00:15:12;;;;;;;64.17;31.67;;;;;;;10.28;100.00;102717.78;5101228;28;20079;-60
2021/10/10 00:17:38;;;;;;;64.45;30.92;;;;;;;10.25;100.00;102713.56;5101537;28;20340;-62
2021/10/10 00:20:06;;;;;;;69.40;31.92;;;;;;;10.29;100.00;102720.31;5101476;28;20122;-61
2021/10/10 00:22:32;;;;;;;61.92;31.40;;;;;;;10.23;100.00;102717.41;5100550;28;20062;-61
2021/10/10 00:24:58;;;;;;;61.25;31.08;;;;;;;10.18;100.00;102716.00;5102266;28;20038;-61
2021/10/10 00:27:24;;;;;;;61.40;32.15;;;;;;;10.18;100.00;102708.00;5100569;28;20024;-60
2021/10/10 00:29:50;;;;;;;64.15;31.23;;;;;;;10.22;100.00;102710.38;5102233;28;20085;-59
2021/10/10 00:32:16;;;;;;;64.40;31.63;;;;;;;10.22;100.00;102713.03;5101715;28;20483;-61
2021/10/10 00:34:42;;;;;;;55.13;29.98;;;;;;;10.21;100.00;102696.13;5084540;28;20484;-59
2021/10/10 00:37:07;;;;;;;64.20;32.17;;;;;;;10.13;100.00;102699.53;5101571;28;20050;-61
2021/10/10 00:39:33;;;;;;;68.93;32.83;;;;;;;10.16;100.00;102701.09;5099675;28;20292;-59
2021/10/10 00:41:58;;;;;;;61.88;29.90;;;;;;;10.08;100.00;102704.50;5101791;28;20027;-60
2021/10/10 00:44:25;;;;;;;66.00;31.40;;;;;;;10.10;100.00;102697.16;5102334;28;20020;-60
2021/10/10 00:46:51;;;;;;;62.25;32.47;;;;;;;10.06;100.00;102697.63;5100792;28;20039;-60
2021/10/10 00:49:16;;;;;;;64.10;31.27;;;;;;;9.99;100.00;102700.03;5100747;28;20036;-59
2021/10/10 00:51:44;;;;;;;60.50;29.23;;;;;;;9.94;100.00;102703.13;5102150;28;20020;-61
2021/10/10 00:54:13;;;;;;;66.85;32.95;;;;;;;9.84;100.00;102697.81;5101642;28;20052;-60
2021/10/10 00:56:39;;;;;;;65.13;31.73;;;;;;;9.86;100.00;102693.16;5102376;28;20373;-61
2021/10/10 00:59:07;;;;;;;65.65;32.65;;;;;;;9.84;100.00;102687.13;5100653;28;20059;-61
2021/10/10 01:01:32;;;;;;;70.20;33.83;;;;;;;9.88;100.00;102691.19;5109545;28;20496;-62
2021/10/10 01:03:58;;;;;;;58.33;31.70;;;;;;;9.85;100.00;102678.13;5113171;28;20062;-60
2021/10/10 01:06:24;;;;;;;63.42;32.45;;;;;;;9.92;100.00;102693.56;5113006;28;20031;-59
2021/10/10 01:08:50;;;;;;;63.17;30.52;;;;;;;9.87;100.00;102689.50;5112919;28;20123;-61
2021/10/10 01:11:16;;;;;;;68.63;33.13;;;;;;;9.78;100.00;102690.38;5112962;28;20357;-61
2021/10/10 01:13:42;;;;;;;67.95;33.40;;;;;;;9.71;100.00;102689.28;5112660;28;20035;-60
2021/10/10 01:16:09;;;;;;;65.07;33.28;;;;;;;9.78;100.00;102690.38;5112925;28;20385;-61
2021/10/10 01:18:34;;;;;;;;;;;;;;;9.65;100.00;102676.47;5113124;28;20123;-60
2021/10/10 01:21:00;;;;;;;63.37;30.00;;;;;;;9.67;100.00;102685.19;5111280;28;20384;-60
2021/10/10 01:23:25;;;;;;;58.55;29.67;;;;;;;9.66;100.00;102676.34;5111336;28;20031;-58
2021/10/10 01:25:51;;;;;;;64.83;32.40;;;;;;;9.64;100.00;102681.00;5112555;28;20095;-61
2021/10/10 01:28:18;;;;;;;62.75;29.73;;;;;;;9.59;100.00;102670.72;5111694;28;20035;-59
2021/10/10 01:30:44;;;;;;;64.13;32.10;;;;;;;9.65;100.00;102681.81;5112806;28;20035;-60
2021/10/10 01:33:12;;;;;;;57.63;29.75;;;;;;;9.58;100.00;102677.06;5112278;28;20058;-60
2021/10/10 01:35:39;;;;;;;66.53;31.85;;;;;;;9.57;100.00;102678.06;5113326;28;20040;-61
2021/10/10 01:38:05;;;;;;;61.25;32.03;;;;;;;9.53;100.00;102676.66;5118148;28;20473;-61
2021/10/10 01:40:33;;;;;;;60.70;30.83;;;;;;;9.52;100.00;102671.44;5118931;28;20036;-61
2021/10/10 01:42:58;;;;;;;66.18;32.50;;;;;;;9.43;100.00;102668.66;5118082;28;20260;-63
2021/10/10 01:45:24;;;;;;;63.57;32.13;;;;;;;9.52;100.00;102666.97;5116362;28;20050;-60
2021/10/10 01:47:50;;;;;;;66.43;31.92;;;;;;;9.45;100.00;102665.81;5115358;28;20036;-59
2021/10/10 01:50:16;;;;;;;67.22;31.30;;;;;;;9.47;100.00;102663.88;5116124;28;20408;-60
2021/10/10 01:52:46;;;;;;;57.90;31.10;;;;;;;9.46;100.00;102664.88;5114535;28;20063;-60
2021/10/10 01:55:11;;;;;;;65.32;30.15;;;;;;;9.42;100.00;102666.13;5119575;28;20027;-61
2021/10/10 01:57:37;;;;;;;61.47;31.13;;;;;;;9.40;100.00;102658.25;5122937;28;20065;-61
2021/10/10 02:00:05;;;;;;;59.47;31.50;;;;;;;9.39;100.00;102655.72;5116857;28;20275;-59
2021/10/10 02:02:37;;;;;;;61.50;31.15;;;;;;;9.39;100.00;102656.59;5115151;28;20032;-60
2021/10/10 02:05:04;;;;;;;61.85;32.00;;;;;;;9.32;100.00;102658.97;5115547;28;20088;-61
2021/10/10 02:07:30;;;;;;;60.08;31.50;;;;;;;9.34;100.00;102658.81;5115829;28;20145;-59
2021/10/10 02:09:55;;;;;;;61.07;30.93;;;;;;;9.32;100.00;102653.63;5114806;28;20066;-61
2021/10/10 02:12:24;;;;;;;63.47;32.77;;;;;;;9.22;100.00;102660.78;5116314;28;20107;-60
2021/10/10 02:14:50;;;;;;;60.35;30.60;;;;;;;9.17;100.00;102660.38;5115200;28;20523;-60
2021/10/10 02:17:16;;;;;;;68.50;31.80;;;;;;;9.13;100.00;102656.31;5115218;28;20032;-61
2021/10/10 02:19:42;;;;;;;64.13;32.38;;;;;;;9.10;100.00;102651.25;5113485;28;20099;-61
2021/10/10 02:22:08;;;;;;;62.38;31.67;;;;;;;9.07;100.00;102656.88;5114764;28;20039;-60
2021/10/10 02:24:34;;;;;;;59.78;31.65;;;;;;;9.02;100.00;102655.47;5114704;28;20042;-60
2021/10/10 02:27:00;;;;;;;58.85;30.88;;;;;;;8.99;100.00;102652.25;5115887;28;20042;-60
2021/10/10 02:29:26;;;;;;;67.07;32.40;;;;;;;8.99;100.00;102647.72;5115586;28;20488;-61
2021/10/10 02:31:52;;;;;;;65.38;30.63;;;;;;;9.00;100.00;102645.91;5115316;28;20035;-61
2021/10/10 02:34:18;;;;;;;59.80;31.70;;;;;;;8.95;100.00;102641.00;5114209;28;20044;-60
2021/10/10 02:36:45;;;;;;;59.42;31.13;;;;;;;8.88;100.00;102638.06;5115263;28;20084;-60
2021/10/10 02:39:13;;;;;;;58.00;29.40;;;;;;;8.88;100.00;102642.53;5114247;28;20076;-60
2021/10/10 02:41:39;;;;;;;60.83;31.33;;;;;;;8.88;100.00;102646.06;5114068;28;20111;-60
2021/10/10 02:44:05;;;;;;;64.82;31.08;;;;;;;8.87;100.00;102654.19;5114084;28;20032;-59
2021/10/10 02:46:30;;;;;;;61.25;31.52;;;;;;;8.87;100.00;102648.88;5113446;28;20027;-60
2021/10/10 02:48:56;;;;;;;70.67;31.30;;;;;;;8.84;100.00;102646.47;5113914;28;20040;-60
2021/10/10 02:51:22;;;;;;;59.53;30.83;;;;;;;8.81;100.00;102641.44;5114233;28;20103;-60
2021/10/10 02:53:47;;;;;;;61.50;31.43;;;;;;;8.77;100.00;102640.03;5114078;28;20169;-59
2021/10/10 02:56:13;;;;;;;64.50;30.43;;;;;;;8.74;100.00;102641.97;5114075;28;20372;-61
2021/10/10 02:58:38;;;;;;;61.60;30.37;;;;;;;8.67;100.00;102651.50;5114155;28;20039;-59
2021/10/10 03:01:04;;;;;;;66.07;31.50;;;;;;;8.66;100.00;102647.16;5113525;28;20264;-60
2021/10/10 03:03:29;;;;;;;57.33;30.40;;;;;;;8.64;100.00;102648.25;5115294;28;20047;-61
2021/10/10 03:05:55;;;;;;;60.67;30.30;;;;;;;8.59;100.00;102646.03;5114930;28;20399;-59
2021/10/10 03:08:20;;;;;;;56.47;28.77;;;;;;;8.55;100.00;102650.78;5115076;28;20282;-60
2021/10/10 03:10:46;;;;;;;69.37;31.93;;;;;;;8.51;100.00;102645.84;5113265;28;20264;-60
2021/10/10 03:13:11;;;;;;;63.25;30.52;;;;;;;8.46;100.00;102644.41;5114749;28;20040;-61
2021/10/10 03:15:40;;;;;;;59.27;29.83;;;;;;;8.44;100.00;102651.72;5114101;28;20076;-60
2021/10/10 03:18:06;;;;;;;59.53;28.05;;;;;;;8.41;100.00;102644.00;5113848;28;20039;-60
2021/10/10 03:20:32;;;;;;;67.28;29.45;;;;;;;8.40;100.00;102644.97;5113697;28;20031;-59
2021/10/10 03:22:57;;;;;;;67.60;29.70;;;;;;;8.40;100.00;102644.13;5113474;28;20039;-58
2021/10/10 03:25:23;;;;;;;51.33;27.25;;;;;;;8.38;100.00;102641.59;5114242;28;20027;-60
2021/10/10 03:27:48;;;;;;;60.40;29.13;;;;;;;8.35;100.00;102641.88;5113099;28;20366;-59
2021/10/10 03:30:14;;;;;;;53.97;29.07;;;;;;;8.31;100.00;102637.81;5113146;28;20081;-61
2021/10/10 03:32:40;;;;;;;57.30;29.30;;;;;;;8.33;100.00;102638.50;5112985;28;20044;-60
2021/10/10 03:35:06;;;;;;;54.80;29.87;;;;;;;8.33;100.00;102638.50;5115415;28;20155;-60
2021/10/10 03:37:33;;;;;;;53.25;29.27;;;;;;;8.34;100.00;102640.19;5114677;28;20053;-60
2021/10/10 03:39:59;;;;;;;58.60;30.02;;;;;;;8.28;100.00;102630.91;5113314;28;20053;-59
2021/10/10 03:42:24;;;;;;;56.70;30.03;;;;;;;8.21;100.00;102639.56;5114806;28;20027;-61
2021/10/10 03:44:50;;;;;;;62.37;30.97;;;;;;;8.20;100.00;102632.56;5116493;28;20023;-60
2021/10/10 03:47:15;;;;;;;63.13;29.87;;;;;;;8.27;100.00;102641.69;5116668;28;20384;-58
2021/10/10 03:49:42;;;;;;;68.10;30.90;;;;;;;8.21;100.00;102634.25;5114351;28;20446;-60
2021/10/10 03:52:09;;;;;;;58.90;31.53;;;;;;;8.22;100.00;102635.94;5114602;28;20031;-59
2021/10/10 03:57:09;;;;;;;61.30;30.98;;;;;;;8.15;100.00;102628.50;5113584;28;20043;-59
2021/10/10 03:59:35;;;;;;;69.53;34.67;;;;;;;8.13;100.00;102632.25;5113715;28;20100;-60
2021/10/10 04:02:05;;;;;;;67.13;32.47;;;;;;;8.16;100.00;102632.84;5111975;28;20032;-61
2021/10/10 04:04:34;;;;;;;66.90;33.92;;;;;;;8.20;100.00;102629.91;5111765;28;20088;-61
2021/10/10 04:07:00;;;;;;;67.18;34.53;;;;;;;8.17;100.00;102636.31;5113017;28;20035;-61
2021/10/10 04:09:25;;;;;;;73.17;36.87;;;;;;;8.14;100.00;102634.78;5112154;28;20507;-61
2021/10/10 04:11:51;;;;;;;70.77;33.47;;;;;;;8.19;100.00;102637.06;5113266;28;20343;-61
2021/10/10 04:14:16;;;;;;;59.53;31.53;;;;;;;8.11;100.00;102631.53;5113861;28;20415;-60
2021/10/10 04:16:41;;;;;;;68.27;33.27;;;;;;;8.13;100.00;102630.44;5112919;28;20027;-61
2021/10/10 04:19:07;;;;;;;60.47;31.63;;;;;;;8.11;100.00;102634.22;5094916;28;20092;-61
2021/10/10 04:21:32;;;;;;;68.63;33.13;;;;;;;8.06;100.00;102629.28;5112707;28;20023;-60
2021/10/10 04:23:58;;;;;;;65.73;33.40;;;;;;;8.03;100.00;102626.88;5111410;28;20044;-61
2021/10/10 04:26:23;;;;;;;69.33;34.23;;;;;;;7.99;100.00;102621.00;5113716;28;20474;-60
2021/10/10 04:28:49;;;;;;;64.43;33.93;;;;;;;7.97;100.00;102627.44;5113040;28;20376;-61
2021/10/10 04:31:17;;;;;;;69.17;32.87;;;;;;;7.99;100.00;102625.47;5094384;28;20465;-59
2021/10/10 04:33:42;;;;;;;69.22;33.22;;;;;;;7.99;100.00;102623.66;5112391;28;20100;-59
2021/10/10 04:36:08;;;;;;;68.10;33.93;;;;;;;7.93;100.00;102620.69;5112824;28;20406;-59
2021/10/10 04:38:33;;;;;;;62.17;31.83;;;;;;;7.96;100.00;102626.59;5112639;28;20032;-60
2021/10/10 04:40:59;;;;;;;63.47;32.73;;;;;;;7.96;100.00;102628.41;5112907;28;20260;-60
2021/10/10 04:43:24;;;;;;;70.27;33.63;;;;;;;7.95;100.00;102630.22;5112232;28;20036;-59
2021/10/10 04:45:50;;;;;;;62.97;32.30;;;;;;;7.94;100.00;102627.69;5111326;28;20354;-60
2021/10/10 04:48:15;;;;;;;70.87;34.37;;;;;;;7.87;100.00;102622.91;5111279;28;20108;-60
2021/10/10 04:50:40;;;;;;;65.73;32.07;;;;;;;7.86;100.00;102625.69;5112194;28;20028;-58
2021/10/10 04:53:06;;;;;;;65.30;31.17;;;;;;;7.86;100.00;102625.69;5112345;28;20124;-59
2021/10/10 04:55:31;;;;;;;60.60;30.77;;;;;;;7.79;100.00;102613.91;5112678;28;20019;-60
2021/10/10 04:57:57;;;;;;;60.40;30.77;;;;;;;7.88;100.00;102623.75;5111102;28;20039;-60
2021/10/10 05:00:22;;;;;;;75.37;33.47;;;;;;;7.88;100.00;102619.28;5112731;28;20027;-61
2021/10/10 05:02:48;;;;;;;66.93;33.70;;;;;;;7.87;100.00;102622.91;5111739;28;20036;-60
2021/10/10 05:05:13;;;;;;;66.70;34.23;;;;;;;7.83;100.00;102632.13;5113187;28;20380;-60
2021/10/10 05:07:39;;;;;;;64.07;32.80;;;;;;;7.83;100.00;102626.81;5113181;28;20113;-60
2021/10/10 05:10:04;;;;;;;68.57;34.23;;;;;;;7.93;100.00;102631.34;5112885;28;20465;-60
2021/10/10 05:12:30;;;;;;;62.20;33.42;;;;;;;7.94;100.00;102628.53;5114574;28;20667;-61
2021/10/10 05:14:55;;;;;;;69.03;32.77;;;;;;;7.94;100.00;102630.38;5116607;28;20043;-61
2021/10/10 05:17:21;;;;;;;65.20;33.73;;;;;;;7.95;100.00;102621.41;5116570;28;20541;-61
2021/10/10 05:19:46;;;;;;;59.30;30.93;;;;;;;7.95;100.00;102635.53;5115954;28;20099;-62
2021/10/10 05:22:12;;;;;;;65.00;32.10;;;;;;;7.94;100.00;102627.69;5116123;28;20072;-61
2021/10/10 05:24:37;;;;;;;63.90;31.00;;;;;;;7.94;100.00;102638.34;5116490;28;20054;-58
2021/10/10 05:27:03;;;;;;;64.73;30.67;;;;;;;7.95;100.00;102638.22;5098144;28;20097;-60
2021/10/10 05:29:28;;;;;;;58.08;29.33;;;;;;;7.91;100.00;102635.97;5116537;28;20084;-61
2021/10/10 05:31:54;;;;;;;60.23;30.73;;;;;;;7.84;100.00;102641.84;5115508;28;20096;-61
2021/10/10 05:34:19;;;;;;;58.53;29.60;;;;;;;7.80;100.00;102632.41;5115842;28;20050;-60
2021/10/10 05:36:45;;;;;;;63.20;31.73;;;;;;;7.81;100.00;102636.75;5115384;28;20048;-60
2021/10/10 05:39:10;;;;;;;71.37;33.10;;;;;;;7.81;100.00;102644.72;5114959;28;20040;-61
2021/10/10 05:41:36;;;;;;;68.33;33.13;;;;;;;7.84;100.00;102641.84;5115121;28;20098;-59
2021/10/10 05:44:01;;;;;;;75.00;33.93;;;;;;;7.85;100.00;102645.31;5115899;28;20490;-59
2021/10/10 05:46:27;;;;;;;94.53;34.60;;;;;;;7.82;100.00;102638.44;5115438;28;20031;-60
2021/10/10 05:48:52;;;;;;;103.30;33.70;;;;;;;7.86;100.00;102642.53;5115293;28;20480;-61
2021/10/10 05:51:18;;;;;;;92.90;36.80;;;;;;;7.86;100.00;102636.34;5115582;28;20142;-61
2021/10/10 05:53:43;;;;;;;91.77;31.80;;;;;;;7.87;100.00;102646.03;5114372;28;20381;-61
2021/10/10 05:56:09;;;;;;;79.13;33.10;;;;;;;7.86;100.00;102642.53;5116073;28;20019;-61
2021/10/10 05:58:40;;;;;;;72.35;30.80;;;;;;;7.80;100.00;102637.72;5114869;28;20040;-60
2021/10/10 06:01:06;;;;;;;98.93;30.27;;;;;;;7.82;100.00;102649.09;5116082;28;20046;-61
2021/10/10 06:03:31;;;;;;;107.83;30.63;;;;;;;7.79;100.00;102640.53;5115610;28;20376;-60
2021/10/10 06:05:57;;;;;;;92.57;31.23;;;;;;;7.83;100.00;102642.78;5114933;28;20114;-60
2021/10/10 06:08:22;;;;;;;75.70;31.77;;;;;;;7.84;100.00;102644.50;5115282;28;20085;-60
2021/10/10 06:10:48;;;;;;;84.07;33.57;;;;;;;7.84;100.00;102657.81;5115223;28;20015;-61
2021/10/10 06:13:13;;;;;;;92.25;31.38;;;;;;;7.84;100.00;102660.47;5115872;28;20434;-60
2021/10/10 06:15:40;;;;;;;79.30;29.57;;;;;;;7.82;100.00;102665.06;5116118;28;20038;-60
2021/10/10 06:18:07;;;;;;;;;;;;;;;7.82;100.00;102661.56;5115745;28;20743;-61
2021/10/10 06:20:32;;;;;;;66.88;25.73;;;;;;;7.78;100.00;102655.66;5115570;28;19910;-61
2021/10/10 06:22:58;;;;;;;54.50;23.20;;;;;;;7.72;100.00;102645.53;5114291;28;20118;-60
2021/10/10 06:25:23;;;;;;;60.03;23.93;;;;;;;7.69;100.00;102640.47;5113474;28;20055;-61
2021/10/10 06:27:49;;;;;;;49.07;23.90;;;;;;;7.72;100.00;102634.88;5113833;28;20122;-61
2021/10/10 06:30:14;;;;;;;54.00;24.17;;;;;;;7.72;100.00;102624.22;5114891;28;20244;-61
2021/10/10 06:32:40;;;;;;;44.93;23.40;;;;;;;7.70;100.00;102620.88;5114929;28;20787;-59
2021/10/10 06:35:07;;;;;;;46.00;23.97;;;;;;;7.74;100.00;102620.47;5113237;28;20047;-60
2021/10/10 06:37:33;;;;;;;43.13;23.27;;;;;;;7.80;100.00;102605.75;5113267;28;20537;-60
2021/10/10 06:39:58;;;;;;;41.75;23.98;;;;;;;7.89;100.00;102609.44;5113499;28;20050;-61
2021/10/10 06:42:24;;;;;;;55.13;26.70;;;;;;;7.98;100.00;102605.13;5115486;28;20035;-60
2021/10/10 06:44:49;;;;;;;43.70;24.30;;;;;;;8.14;100.00;102616.13;5114712;28;20153;-60
2021/10/10 06:47:15;;;;;;;58.97;24.60;;;;;;;8.24;100.00;102616.16;5114776;28;20039;-60
2021/10/10 06:49:41;;;;;;;44.28;24.40;;;;;;;8.33;100.00;102630.50;5114422;28;20031;-59
2021/10/10 06:52:08;;;;;;;38.28;22.67;;;;;;;8.40;100.00;102639.63;5095895;28;20043;-62
2021/10/10 06:54:33;;;;;;;44.10;23.27;;;;;;;8.45;100.00;102637.41;5096179;28;20429;-62
2021/10/10 06:56:59;;;;;;;37.65;21.10;;;;;;;8.44;100.00;102625.06;5114686;28;20084;-61
2021/10/10 06:59:25;;;;;;;33.70;21.65;;;;;;;8.54;100.00;102638.44;5096336;28;20113;-61
2021/10/10 07:01:50;;;;;;;42.03;22.57;;;;;;;8.58;100.00;102655.84;5114695;27;20106;-59
2021/10/10 07:04:16;;;;;;;45.77;23.33;;;;;;;8.71;100.00;102652.09;5122359;27;20035;-61
2021/10/10 07:06:42;;;;;;;45.45;23.25;;;;;;;8.87;100.00;102652.38;5123005;27;20341;-60
2021/10/10 07:09:08;;;;;;;55.85;24.02;;;;;;;8.94;100.00;102649.97;5114348;27;20023;-61
2021/10/10 07:11:33;;;;;;;52.17;22.20;;;;;;;9.06;100.00;102661.38;5103420;27;20382;-61
2021/10/10 07:13:59;;;;;;;36.93;22.03;;;;;;;9.11;100.00;102661.81;5105972;28;20385;-60
2021/10/10 07:16:28;;;;;;;33.63;21.47;;;;;;;9.22;100.00;102660.78;5114655;28;20457;-62
2021/10/10 07:18:55;;;;;;;30.42;20.33;;;;;;;9.31;100.00;102657.28;5113246;28;20034;-61
2021/10/10 07:26:58;;;;;;;61.63;21.88;;;;;;;9.57;100.00;102642.47;5082424;28;20143;-62
2021/10/10 07:29:23;;;;;;;33.97;19.70;;;;;;;9.54;100.00;102634.75;5114776;28;20129;-61
2021/10/10 07:31:49;;;;;;;31.70;21.23;;;;;;;9.46;100.00;102632.81;5114937;28;20042;-62
2021/10/10 07:34:14;;;;;;;29.73;19.80;;;;;;;9.45;100.00;102639.97;5114074;28;20365;-62
2021/10/10 07:36:40;;;;;;;30.87;20.30;;;;;;;9.51;100.00;102643.91;5114587;28;20089;-61
2021/10/10 07:39:05;;;;;;;41.25;17.95;;;;;;;9.68;100.00;102644.13;5114300;28;20028;-61
2021/10/10 07:41:35;;;;;;;25.50;16.73;;;;;;;9.77;100.00;102640.59;5114692;28;20038;-62
2021/10/10 07:44:05;;;;;;;35.85;17.67;;;;;;;9.85;100.00;102645.22;5112913;28;20433;-61
2021/10/10 07:46:37;;;;;;;29.52;19.10;;;;;;;10.00;100.00;102653.59;5096096;28;20129;-61
2021/10/10 07:49:03;;;;;;;23.08;16.75;;;;;;;10.07;100.00;102654.69;5113939;28;20050;-61
2021/10/10 07:51:29;;;;;;;25.15;16.73;;;;;;;10.05;100.00;102651.31;5115262;28;20031;-61
2021/10/10 07:53:55;;;;;;;23.47;16.47;;;;;;;10.08;100.00;102658.22;5099953;28;20105;-60
2021/10/10 07:56:20;;;;;;;24.33;16.63;;;;;;;10.18;100.00;102662.53;5118826;28;20054;-62
2021/10/10 07:58:46;;;;;;;28.65;19.23;;;;;;;10.31;100.00;102656.84;5115081;28;20055;-61
2021/10/10 08:01:11;;;;;;;31.48;18.52;;;;;;;10.44;100.00;102661.00;5121038;28;20032;-60
2021/10/10 08:03:37;;;;;;;28.03;17.97;;;;;;;10.45;100.00;102666.22;5114984;28;20131;-61
2021/10/10 08:06:02;;;;;;;25.77;17.47;;;;;;;10.43;100.00;102667.34;5114858;28;20023;-60
2021/10/10 08:08:28;;;;;;;26.87;18.83;;;;;;;10.56;100.00;102675.88;5114332;28;20415;-61
2021/10/10 08:10:53;;;;;;;27.90;19.27;;;;;;;10.65;100.00;102671.47;5112938;28;20342;-61
2021/10/10 08:13:19;;;;;;;38.90;27.00;;;;;;;10.75;100.00;102672.22;5113644;28;20039;-62
2021/10/10 08:15:44;;;;;;;27.27;19.10;;;;;;;10.92;100.00;102661.69;5113689;28;20357;-61
2021/10/10 08:18:10;;;;;;;40.88;25.92;;;;;;;11.09;100.00;102669.88;5113490;28;20139;-61
2021/10/10 08:20:38;;;;;;;27.10;18.77;;;;;;;11.27;100.00;102668.00;5112493;28;20032;-60
2021/10/10 08:23:03;;;;;;;30.97;21.07;;;;;;;11.62;100.00;102662.72;5113465;28;20073;-62
2021/10/10 08:25:32;;;;;;;28.33;20.17;;;;;;;11.69;100.00;102669.16;5113653;28;20640;-61
2021/10/10 08:27:58;;;;;;;33.27;21.50;;;;;;;12.11;100.00;102680.09;5095353;28;20031;-60
2021/10/10 08:30:25;;;;;;;30.40;21.27;;;;;;;12.79;100.00;102678.31;5112659;28;20264;-60
2021/10/10 08:32:51;;;;;;;30.83;20.50;;;;;;;13.39;100.00;102675.53;5113694;28;20084;-61
2021/10/10 08:35:17;;;;;;;28.35;20.40;;;;;;;13.94;100.00;102676.59;5113769;28;20745;-61
2021/10/10 08:37:44;;;;;;;33.58;19.95;;;;;;;14.27;100.00;102670.25;5106096;28;20069;-62
2021/10/10 08:40:11;;;;;;;31.37;19.87;;;;;;;14.62;100.00;102690.44;5093179;28;20144;-60
2021/10/10 08:42:39;;;;;;;33.03;20.20;;;;;;;15.43;100.00;102677.56;5092254;28;20287;-62
2021/10/10 08:45:15;;;;;;;29.00;20.60;;;;;;;16.13;100.00;102674.69;5091394;28;20306;-63
2021/10/10 08:47:43;;;;;;;27.93;18.47;;;;;;;16.43;100.00;102680.88;5075566;28;20359;-62
2021/10/10 08:50:19;;;;;;;33.23;19.00;;;;;;;16.46;100.00;102680.47;5093014;28;20315;-61
2021/10/10 08:52:46;;;;;;;30.02;17.55;;;;;;;16.27;100.00;102673.84;5092805;28;20040;-62
2021/10/10 08:55:13;;;;;;;26.70;17.97;;;;;;;15.77;100.00;102673.53;5096155;28;20085;-61
2021/10/10 08:57:39;;;;;;;31.93;19.30;;;;;;;15.62;100.00;102670.84;5093392;28;20028;-61
2021/10/10 09:00:10;;;;;;;31.57;20.10;;;;;;;15.29;100.00;102680.06;5095884;28;20024;-61
2021/10/10 09:02:38;;;;;;;27.77;19.23;;;;;;;15.15;100.00;102687.09;5096563;28;20036;-61
2021/10/10 09:05:07;;;;;;;41.80;21.80;;;;;;;15.28;100.00;102675.69;5095824;28;20016;-61
2021/10/10 09:07:33;;;;;;;33.17;21.40;;;;;;;15.45;100.00;102670.13;5094313;28;20347;-61
2021/10/10 09:10:20;;;;;;;30.98;19.45;;;;;;;15.63;100.00;102681.41;5094138;28;20055;-60
2021/10/10 09:12:47;;;;;;;37.07;22.83;;;;;;;15.54;100.00;102679.00;5123307;28;20031;-62
2021/10/10 09:15:21;;;;;;;34.17;21.40;;;;;;;15.57;100.00;102675.91;5135525;28;20255;-63
2021/10/10 09:17:52;;;;;;;41.23;23.83;;;;;;;15.99;100.00;102679.06;5135164;28;20039;-61
2021/10/10 09:20:26;;;;;;;44.63;24.03;;;;;;;16.23;100.00;102674.38;5137048;27;20274;-62
2021/10/10 09:22:51;;;;;;;41.17;23.73;;;;;;;16.62;100.00;102676.72;5135344;27;20126;-62
2021/10/10 09:25:17;;;;;;;38.85;22.73;;;;;;;17.46;100.00;102673.53;5124806;27;20543;-62
2021/10/10 09:27:43;;;;;;;42.80;24.20;;;;;;;17.68;100.00;102665.34;5120595;28;20134;-61
2021/10/10 09:30:09;;;;;;;42.13;24.77;;;;;;;18.80;100.00;102680.63;5122749;28;20058;-61
2021/10/10 09:32:35;;;;;;;37.83;23.80;;;;;;;19.43;100.00;102679.44;5125385;28;20027;-62
2021/10/10 09:35:03;;;;;;;50.40;25.00;;;;;;;19.35;100.00;102672.34;5133616;27;20085;-61
2021/10/10 09:37:39;;;;;;;40.67;24.97;;;;;;;18.44;100.00;102666.38;5132663;28;20062;-60
2021/10/10 09:40:22;;;;;;;42.33;25.17;;;;;;;17.27;100.00;102666.97;5123426;28;20081;-59
2021/10/10 09:42:51;;;;;;;43.13;25.63;;;;;;;16.77;100.00;102668.56;5120474;28;20023;-61
2021/10/10 09:45:30;;;;;;;41.70;26.53;;;;;;;17.11;100.00;102663.50;5103863;28;20064;-62
2021/10/10 09:47:58;;;;;;;45.40;27.83;;;;;;;17.21;100.00;102671.28;5122125;28;20028;-63
2021/10/10 09:50:25;;;;;;;47.97;28.40;;;;;;;17.64;100.00;102659.50;5113957;28;20023;-60
2021/10/10 09:53:05;;;;;;;50.40;28.87;;;;;;;18.49;100.00;102656.59;5112849;28;20422;-61
2021/10/10 09:55:32;;;;;;;48.73;27.20;;;;;;;17.84;100.00;102656.94;5111563;28;20043;-61
2021/10/10 09:57:57;;;;;;;49.23;29.27;;;;;;;18.46;100.00;102646.19;5113530;28;20032;-60
2021/10/10 10:00:25;;;;;;;50.50;28.40;;;;;;;20.00;100.00;102651.75;5114021;28;20035;-59
2021/10/10 10:02:51;;;;;;;41.53;25.83;;;;;;;20.69;100.00;102653.91;5116434;28;20028;-60
2021/10/10 10:05:30;;;;;;;36.17;23.53;;;;;;;21.62;100.00;102649.56;5116002;28;20457;-60
2021/10/10 10:07:57;;;;;;;37.57;24.23;;;;;;;22.02;100.00;102659.16;5116535;28;20058;-61
2021/10/10 10:10:27;;;;;;;37.50;24.47;;;;;;;22.44;100.00;102669.34;5116142;28;20483;-60
2021/10/10 10:12:54;;;;;;;37.87;24.40;;;;;;;23.03;100.00;102671.38;5111131;28;20126;-60
2021/10/10 10:15:26;;;;;;;38.47;23.70;;;;;;;23.80;94.34;102690.66;5115807;28;20031;-61
2021/10/10 10:17:52;;;;;;;37.87;25.10;;;;;;;23.88;85.12;102701.19;5115167;28;20067;-61
2021/10/10 10:20:18;;;;;;;35.20;22.63;;;;;;;24.64;79.98;102702.13;5132862;27;20019;-61
2021/10/10 10:22:44;;;;;;;;;;;;;;;25.10;72.34;102682.13;5137102;27;20043;-62
2021/10/10 10:25:10;;;;;;;36.35;21.90;;;;;;;25.60;69.81;102675.81;5136203;27;19907;-59
2021/10/10 10:27:35;;;;;;;32.60;21.33;;;;;;;26.13;63.90;102669.84;5119827;27;20043;-60
2021/10/10 10:30:03;;;;;;;30.27;20.17;;;;;;;26.25;61.08;102679.88;5115712;28;20487;-61
2021/10/10 10:32:31;;;;;;;37.65;24.35;;;;;;;26.57;57.88;102688.16;5115515;28;20385;-62
2021/10/10 10:35:04;;;;;;;35.22;21.83;;;;;;;26.72;53.73;102684.72;5115651;27;20036;-61
2021/10/10 10:37:41;;;;;;;28.60;18.85;;;;;;;27.20;56.14;102705.97;5122042;27;20032;-61
2021/10/10 10:40:27;;;;;;;29.63;19.35;;;;;;;27.74;52.60;102701.41;5121511;27;20151;-62
2021/10/10 10:42:55;;;;;;;45.53;19.13;;;;;;;27.87;51.36;102708.31;5120205;27;20154;-61
2021/10/10 10:45:23;;;;;;;36.38;20.00;;;;;;;28.32;47.63;102703.25;5119424;27;20081;-61
2021/10/10 10:47:49;;;;;;;38.47;23.88;;;;;;;28.56;45.02;102702.75;5125391;27;20026;-61
2021/10/10 10:50:21;;;;;;;38.42;21.17;;;;;;;28.57;45.19;102708.00;5121234;27;20404;-60
2021/10/10 10:53:23;;;;;;;30.27;19.05;;;;;;;28.88;46.73;102710.78;5134241;27;20110;-61
2021/10/10 10:55:55;;;;;;;30.58;19.00;;;;;;;29.39;44.18;102702.75;5119715;27;20046;-61
2021/10/10 10:58:21;;;;;;;23.67;14.63;;;;;;;29.23;46.30;102700.00;5133830;27;20042;-61
2021/10/10 11:00:48;;;;;;;35.38;21.23;;;;;;;29.29;43.29;102704.41;5134862;27;20376;-61
2021/10/10 11:03:23;;;;;;;23.73;14.40;;;;;;;29.23;46.90;102699.19;5134666;27;20031;-60
2021/10/10 11:05:53;;;;;;;32.42;20.65;;;;;;;29.56;43.80;102699.69;5135201;27;20039;-61
2021/10/10 11:08:22;;;;;;;33.60;21.08;;;;;;;30.13;42.72;102693.97;5134666;27;20039;-61
2021/10/10 11:10:59;;;;;;;29.98;19.02;;;;;;;30.27;39.83;102691.38;5134263;27;20043;-61
2021/10/10 11:13:34;;;;;;;34.38;23.65;;;;;;;30.77;38.15;102696.81;5135190;27;20050;-61